A80 TRACON Summary / KATL TAF
ATL TRACON Summary:
High pressure will continue to dominate the airspace. Expect VFR conditions under mostly clear skies. Surface winds will be east to southeast at 5-8kts and transition to the southwest after 18z. Hazards in the TRACON airspace: None expected.

Updated: 3/29/2015 6:00 AM
ATL Terminal Aerodrome Forecast:

FTUS80 KATL 291557 AAA
KATL 291555Z 2916/3018 17010KT P6SM SKC
     FM292000 17007KT P6SM SCT050
     FM300300 17007KT P6SM BKN035
     FM301100 22010KT P6SM OVC012
     FM301300 23009KT P6SM VCSH SCT008 BKN012
ATL TRACON Area Remark:
FROST AND RELATED DE-ICING OPERATIONS POSSIBLE UNTIL 13Z.
Convective Gate Forecast / Icing Gate Forecast / Vertical Wind Profile (click on image to enlarge)
Convective Gate Forecast
Icing Gate Forecast

table with gate forecasts (convective and CCFP) used April - November while icing gate forecasts are issued

AIRMETs & SIGMETS/ Southeast Radar loop / Satellite Image (click on image to enlarge)

Southeast Radar Loop

 



USA.gov is the U.S. government's official web portal to all federal, state and local government web resources and services.